Date,TemperatureHighF,TemperatureAvgF,TemperatureLowF,DewpointHighF,DewpointAvgF,DewpointLowF,HumidityHigh,HumidityAvg,HumidityLow,PressureMaxIn,PressureMinIn,WindSpeedMaxMPH,WindSpeedAvgMPH,GustSpeedMaxMPH,PrecipitationSumIn
2012-1-1,55.0,50.5,41.7,50.3,46.8,38.5,89,87,81,29.58,29.35,5,0,5,0.00
2012-1-2,45.3,39.6,34.3,41.3,35.7,31.4,90,86,75,29.70,29.44,9,0,9,0.00
2012-1-3,53.2,47.4,40.3,49.6,43.2,33.8,89,86,76,29.65,29.16,10,1,10,0.00
2012-1-4,49.1,43.7,39.0,44.1,37.7,32.3,88,80,71,29.96,29.42,6,1,6,0.00
2012-1-5,52.3,49.2,43.2,45.7,40.4,35.0,83,72,58,29.80,29.27,12,3,12,0.00
2012-1-6,48.7,46.1,39.0,44.7,40.0,34.9,86,79,70,30.15,29.93,5,0,5,0.00
2012-1-7,51.1,48.9,45.7,45.2,40.6,36.6,86,74,61,30.06,29.88,5,1,5,0.00
2012-1-8,50.9,47.1,42.6,42.2,39.8,37.9,87,76,69,30.18,30.06,2,0,2,0.00
2012-1-9,56.8,49.2,40.3,48.8,44.3,36.7,88,83,71,30.32,30.15,4,0,4,0.00
2012-1-10,53.6,49.1,43.5,49.8,45.0,39.3,89,86,83,30.33,30.30,1,0,1,0.00
2012-1-11,53.4,45.3,40.3,48.7,41.3,36.4,88,86,81,30.34,30.23,2,0,2,0.00
2012-1-12,47.5,43.6,35.6,44.0,39.8,30.9,89,86,79,30.25,30.10,1,0,1,0.00
2012-1-13,44.6,34.5,28.8,40.1,30.4,24.2,88,85,77,30.34,30.24,3,0,3,0.00
2012-1-14,41.2,33.7,27.7,37.0,29.5,24.1,89,84,79,30.26,30.12,0,0,0,0.02
2012-1-15,43.5,33.2,27.1,38.8,28.4,23.8,89,82,70,30.13,30.01,0,0,0,0.00
2012-1-16,43.2,32.5,26.8,38.1,26.9,22.0,88,80,62,30.15,30.02,0,0,0,0.00
2012-1-17,39.7,33.5,23.5,35.2,29.3,20.0,87,85,82,30.18,30.12,0,0,0,0.00
2012-1-18,53.8,46.6,30.0,50.6,43.2,26.3,89,88,86,30.13,29.97,0,0,0,0.00
2012-1-19,50.7,50.5,50.4,47.4,47.0,47.0,89,88,88,29.98,29.96,0,0,0,0.00
2012-1-20,50.5,50.5,50.5,47.0,47.0,47.0,88,88,88,29.96,29.96,0,0,0,0.00
2012-1-21,50.5,50.5,50.5,47.0,47.0,47.0,88,88,88,29.96,29.96,0,0,0,0.00
2012-1-22,50.5,50.5,50.5,47.0,47.0,47.0,88,88,88,29.96,29.96,0,0,0,0.00
2012-1-23,50.5,50.5,50.5,47.0,47.0,47.0,88,88,88,29.96,29.96,0,0,0,0.00
2012-1-24,50.5,50.5,50.5,47.0,47.0,47.0,88,88,88,29.96,29.96,0,0,0,0.00
2012-1-25,50.5,50.5,50.5,47.0,47.0,47.0,88,88,88,29.96,29.96,0,0,0,0.00
2012-1-26,50.5,50.5,50.5,47.0,47.0,47.0,88,88,88,29.96,29.96,0,0,0,0.00
2012-1-27,50.5,50.5,50.5,47.0,47.0,47.0,88,88,88,29.96,29.96,0,0,0,0.00
2012-1-28,50.5,50.5,50.5,47.0,47.0,47.0,88,88,88,29.96,29.96,0,0,0,0.00
2012-1-29,50.5,50.5,50.5,47.0,47.0,47.0,88,88,88,29.96,29.96,0,0,0,0.00
2012-1-30,50.5,38.0,26.4,47.0,32.5,21.3,88,81,67,30.14,29.96,0,0,0,0.00
2012-1-31,40.5,32.1,27.0,35.9,27.9,23.3,88,84,81,30.21,30.03,0,0,0,0.00
2012-2-1,45.0,32.6,28.6,31.1,24.8,18.7,84,73,57,30.36,30.21,2,0,2,0.00
2012-2-2,29.5,29.5,29.5,18.8,18.8,18.8,64,64,64,30.36,30.36,0,0,0,0.00
2012-2-3,29.5,29.5,29.5,18.8,18.8,18.8,64,64,64,30.36,30.36,0,0,0,0.00
2012-2-4,37.6,26.9,16.9,29.9,21.8,12.9,87,81,71,30.50,30.05,0,0,0,0.00
2012-2-5,39.0,34.4,32.4,34.9,30.8,28.9,88,87,84,30.26,30.00,0,0,0,0.02
2012-2-6,41.9,35.7,32.5,38.3,32.2,29.0,88,87,86,30.40,30.26,0,0,0,0.00
2012-2-7,43.9,27.8,21.9,38.8,22.0,15.7,89,79,66,30.62,30.40,0,0,0,0.00
2012-2-8,33.6,31.1,26.4,26.8,24.6,19.8,81,77,74,30.60,30.51,0,0,1,0.00
2012-2-9,39.4,32.1,29.1,30.0,26.1,24.3,83,78,68,30.54,30.45,0,0,0,0.00
2012-2-10,40.3,30.2,19.9,35.5,25.2,15.7,87,82,68,30.48,30.43,2,0,2,0.00
2012-2-11,33.6,19.7,13.6,29.3,15.4,9.9,87,84,74,30.44,30.40,0,0,0,0.00
2012-2-12,44.2,32.1,16.7,38.3,27.7,12.6,87,84,79,30.43,30.32,1,0,1,0.00
2012-2-13,45.5,39.4,31.8,41.1,35.6,28.7,89,86,80,30.33,30.00,2,0,2,0.00
2012-2-14,52.2,43.1,37.8,41.6,36.6,32.9,86,78,66,30.14,30.02,7,1,7,0.00
2012-2-15,54.1,47.2,42.4,41.8,39.6,37.8,86,75,63,30.19,30.02,8,2,8,0.00
2012-2-16,55.9,46.6,37.6,42.4,38.0,32.3,84,72,57,30.19,30.11,5,0,5,0.00
2012-2-17,55.9,47.2,38.3,48.5,39.4,34.5,87,74,69,30.11,29.89,2,1,2,0.00
2012-2-18,52.7,44.6,34.9,43.8,38.7,29.6,87,80,66,29.89,29.55,6,0,6,0.02
2012-2-19,55.6,36.3,25.0,34.3,27.0,18.3,83,70,43,30.30,29.79,6,0,6,0.00
2012-2-20,57.4,41.4,23.2,38.2,31.1,19.1,85,68,44,30.32,30.21,7,0,7,0.00
2012-2-21,56.8,44.7,39.6,43.7,38.4,33.9,84,79,58,30.22,30.16,3,0,3,0.00
2012-2-22,51.6,47.8,46.0,47.9,42.8,40.6,88,83,72,30.20,29.89,4,0,4,0.02
2012-2-23,75.4,55.1,48.0,57.5,49.2,44.0,88,81,52,30.12,29.91,0,0,0,0.00
2012-2-24,69.6,52.5,47.5,53.0,46.5,43.8,87,81,55,30.20,30.11,2,0,2,0.00
2012-2-25,69.3,47.5,35.4,45.1,37.8,29.8,84,70,41,30.21,30.09,1,0,1,0.00
2012-2-26,70.7,43.0,30.0,49.6,35.4,26.1,87,76,46,30.21,30.15,0,0,0,0.00
2012-2-27,53.6,47.8,40.8,47.0,42.6,36.0,87,82,77,30.15,30.01,0,0,0,0.00
2012-2-28,57.4,51.4,48.9,49.8,46.4,44.4,86,83,76,30.08,30.01,0,0,0,0.00
2012-2-29,58.6,50.7,44.4,50.5,45.4,39.1,87,82,72,30.08,30.03,0,0,0,0.00
2012-3-1,44.6,44.6,44.6,39.5,39.5,39.5,82,82,82,30.07,30.07,0,0,0,0.00
2012-3-2,44.6,44.6,44.6,39.5,39.5,39.5,82,82,82,30.07,30.07,0,0,0,0.00
2012-3-3,44.6,44.6,44.6,39.5,39.5,39.5,82,82,82,30.07,30.07,0,0,0,0.00
2012-3-4,44.6,44.6,44.6,39.5,39.5,39.5,82,82,82,30.07,30.07,0,0,0,0.00
2012-3-5,59.5,45.4,36.1,39.5,33.1,27.4,82,64,41,30.07,29.98,12,2,12,0.00
2012-3-6,62.4,40.8,32.2,43.5,32.5,27.3,84,73,49,30.14,30.03,5,0,5,0.00
2012-3-7,63.1,45.2,37.9,53.7,38.1,29.0,88,77,56,30.04,29.65,9,0,9,0.02
2012-3-8,60.1,43.9,29.8,42.6,34.4,24.9,85,70,50,30.36,30.04,5,0,5,0.00
2012-3-9,54.5,48.8,38.5,45.0,41.6,31.9,83,76,68,30.38,30.33,6,0,6,0.00
2012-3-10,73.0,53.5,42.6,54.2,46.3,37.5,87,77,52,30.46,30.37,0,0,0,0.00
2012-3-11,79.2,51.5,37.8,53.5,42.7,33.9,88,74,40,30.46,30.37,1,0,1,0.00
2012-3-12,80.2,48.3,36.5,55.0,40.8,32.4,87,77,40,30.40,30.33,0,0,0,0.00
2012-3-13,45.7,45.7,45.3,41.5,41.5,40.8,85,85,84,30.37,30.35,0,0,0,0.00
2012-3-14,45.7,45.7,45.7,41.5,41.5,41.5,85,85,85,30.35,30.35,0,0,0,0.00
2012-3-15,45.7,45.7,45.7,41.5,41.5,41.5,85,85,85,30.35,30.35,0,0,0,0.00
2012-3-16,45.7,45.7,45.7,41.5,41.5,41.5,85,85,85,30.35,30.35,0,0,0,0.00
2012-3-17,45.7,45.7,45.7,41.5,41.5,41.5,85,85,85,30.35,30.35,0,0,0,0.00
2012-3-18,45.7,45.7,45.7,41.5,41.5,41.5,85,85,85,30.35,30.35,0,0,0,0.00
2012-3-19,45.7,45.7,45.7,41.5,41.5,41.5,85,85,85,30.35,30.35,0,0,0,0.00
2012-3-20,45.7,45.7,45.7,41.5,41.5,41.5,85,85,85,30.35,30.35,0,0,0,0.00
2012-3-21,81.5,46.5,40.8,50.0,39.7,33.8,85,78,31,30.39,30.27,1,0,1,0.00
2012-3-22,81.0,52.7,37.4,50.0,38.7,32.5,85,63,27,30.29,30.12,0,0,0,0.00
2012-3-23,86.2,54.1,37.9,54.1,41.7,33.2,85,66,32,30.15,30.09,0,0,0,0.00
2012-3-24,88.5,55.1,37.6,55.0,40.8,32.8,85,63,26,30.26,30.13,0,0,0,0.00
2012-3-25,84.9,52.3,37.2,49.7,37.8,31.9,84,62,27,30.39,30.25,0,0,0,0.00
2012-3-26,90.3,53.1,33.4,52.0,36.6,28.5,85,59,22,30.43,30.37,0,0,0,0.00
2012-3-27,91.4,54.6,36.3,46.5,35.7,28.2,79,54,21,30.44,30.35,0,0,0,0.00
2012-3-28,92.8,54.9,32.7,46.6,35.0,25.3,77,52,20,30.37,30.21,3,0,3,0.00
2012-3-29,84.9,54.7,35.8,48.1,38.2,29.2,80,57,28,30.22,30.10,4,0,4,0.00
2012-3-30,78.6,56.9,41.9,51.4,43.3,35.3,79,62,38,30.12,29.93,0,0,0,0.00
2012-3-31,57.6,47.3,35.4,44.1,38.1,26.9,84,71,54,30.04,29.86,0,0,0,0.00
2012-4-1,77.5,47.5,31.3,43.6,32.1,26.2,82,59,25,30.04,29.81,0,0,0,0.00
2012-4-2,78.6,46.9,31.3,47.3,33.0,25.3,83,62,29,29.81,29.53,0,0,0,0.00
2012-4-3,64.9,47.4,33.6,44.3,35.6,27.4,80,65,46,29.53,29.36,0,0,0,0.00
2012-4-4,60.1,60.1,60.1,42.9,42.9,42.9,53,53,53,29.36,29.36,0,0,0,0.00
2012-4-5,60.1,60.1,60.1,42.9,42.9,42.9,53,53,53,29.36,29.36,0,0,0,0.00
2012-4-6,60.1,60.1,60.1,42.9,42.9,42.9,53,53,53,29.36,29.36,0,0,0,0.00
2012-4-7,60.1,60.1,60.1,42.9,42.9,42.9,53,53,53,29.36,29.36,0,0,0,0.00
2012-4-8,60.1,60.1,60.1,42.9,42.9,42.9,53,53,53,29.36,29.36,0,0,0,0.00
2012-4-9,60.1,51.9,45.7,48.2,44.6,41.0,88,78,53,29.55,28.93,5,0,5,0.02
2012-4-10,67.6,47.7,35.4,47.9,38.4,30.4,88,72,43,29.17,28.94,5,0,5,0.00
2012-4-11,76.6,46.9,31.8,50.7,35.9,28.1,87,69,32,29.39,29.17,7,0,7,0.00
2012-4-12,78.6,47.1,33.6,49.3,37.0,28.9,86,70,35,29.49,29.39,7,0,7,0.00
2012-4-13,77.4,48.7,31.5,49.8,35.9,27.2,86,65,30,29.52,29.46,4,0,4,0.00
2012-4-14,64.6,48.9,39.6,43.2,36.3,30.2,83,64,35,29.75,29.49,6,0,6,0.00
2012-4-15,61.5,43.4,34.5,38.8,31.5,27.1,81,65,38,30.11,29.75,10,1,10,0.00
2012-4-16,75.4,52.7,32.2,42.0,30.6,25.3,83,45,25,30.14,29.86,5,0,5,0.00
2012-4-17,67.3,46.4,37.6,48.7,36.0,28.6,85,69,38,29.86,29.12,7,1,7,0.02
2012-4-18,62.4,46.5,38.8,52.0,41.3,34.6,87,82,68,29.12,28.64,8,0,8,0.02
2012-4-19,58.8,45.6,41.9,51.3,40.8,37.7,88,84,68,29.06,28.73,5,0,5,0.04
2012-4-20,72.1,46.3,36.0,53.9,39.6,32.4,88,78,50,29.19,29.06,6,0,6,0.02
2012-4-21,70.2,49.9,34.2,48.7,38.3,30.0,87,68,42,29.26,29.18,5,1,5,0.00
2012-4-22,67.3,67.3,67.3,43.3,43.3,43.3,42,42,42,29.26,29.26,3,3,4,0.00
2012-4-23,67.3,67.3,67.3,43.3,43.3,43.3,42,42,42,29.26,29.26,3,3,4,0.00
2012-4-24,67.3,67.3,67.3,43.3,43.3,43.3,42,42,42,29.26,29.26,3,3,4,0.00
2012-4-25,67.3,67.3,67.3,43.3,43.3,43.3,42,42,42,29.26,29.26,3,3,4,0.00
2012-4-26,67.3,67.3,67.3,43.3,43.3,43.3,42,42,42,29.26,29.26,3,3,4,0.00
2012-4-27,70.2,61.6,46.9,54.2,44.6,42.0,84,56,42,29.79,29.26,6,2,6,0.00
2012-4-28,49.1,46.0,40.8,45.4,42.1,37.2,88,86,84,29.83,29.68,9,1,9,0.04
2012-4-29,66.7,47.1,40.8,57.8,42.8,37.5,89,85,71,29.69,29.34,8,1,8,0.08
2012-4-30,85.6,57.5,45.0,51.3,45.3,39.8,83,67,30,29.78,29.52,4,0,4,0.04
2012-5-1,75.7,55.8,50.9,59.3,49.7,44.4,88,81,52,29.98,29.70,2,0,2,0.00
2012-5-2,58.8,53.1,47.5,50.3,46.9,42.0,84,80,63,29.98,29.80,0,0,0,0.00
2012-5-3,50.5,47.5,45.3,44.9,43.0,41.0,86,84,81,29.80,29.60,0,0,0,0.00
2012-5-4,50.5,47.1,44.2,44.7,41.7,40.5,87,82,74,29.58,29.52,0,0,0,0.00
2012-5-5,56.5,45.7,43.0,38.1,35.7,33.7,77,69,49,29.70,29.63,0,0,0,0.00
2012-5-6,52.3,46.8,41.0,37.9,35.6,34.1,78,66,53,29.78,29.69,0,0,0,0.00
2012-5-7,50.5,50.5,50.5,35.4,35.4,35.4,56,56,56,29.78,29.78,0,0,0,0.00
2012-5-8,50.5,50.5,50.5,35.4,35.4,35.4,56,56,56,29.78,29.78,0,0,0,0.00
2012-5-9,50.5,50.5,50.5,35.4,35.4,35.4,56,56,56,29.78,29.78,0,0,0,0.00
2012-5-10,50.5,50.5,50.5,35.4,35.4,35.4,56,56,56,29.78,29.78,0,0,0,0.00
2012-5-11,50.5,50.5,50.5,35.4,35.4,35.4,56,56,56,29.78,29.78,0,0,0,0.00
2012-5-12,70.0,50.7,36.7,40.9,35.5,30.8,80,56,35,30.47,29.78,6,0,6,0.00
2012-5-13,61.2,50.1,35.4,46.9,35.5,30.7,84,58,42,30.42,29.78,2,0,2,0.00
2012-5-14,57.7,51.0,43.5,49.0,42.2,37.1,84,72,62,29.85,29.69,3,0,3,0.02
2012-5-15,61.3,45.2,39.6,44.5,38.0,34.4,86,77,49,30.04,29.68,7,1,7,0.00
2012-5-16,70.9,48.1,35.8,42.4,36.5,31.1,86,67,35,30.12,30.04,6,1,6,0.00
2012-5-17,79.2,61.7,50.2,48.0,40.7,36.2,67,47,31,29.91,29.59,3,0,3,0.00
2012-5-18,64.0,53.7,46.2,50.0,44.3,38.9,84,71,53,29.59,29.43,4,0,4,0.00
2012-5-19,66.0,64.8,53.4,54.7,51.7,48.7,84,63,60,29.64,29.51,0,0,0,0.00
2012-5-20,66.0,66.0,66.0,51.8,51.8,51.8,60,60,60,29.64,29.64,0,0,0,0.00
2012-5-21,66.0,66.0,66.0,51.8,51.8,51.8,60,60,60,29.64,29.64,0,0,0,0.00
2012-5-22,66.0,66.0,66.0,51.8,51.8,51.8,60,60,60,29.64,29.64,0,0,0,0.00
2012-5-23,66.0,66.0,66.0,51.8,51.8,51.8,60,60,60,29.64,29.64,0,0,0,0.00
2012-5-24,97.0,67.2,66.0,66.6,53.9,51.8,79,63,37,30.13,29.64,2,0,2,0.00
2012-5-25,91.2,70.4,58.3,61.5,54.9,44.5,86,63,27,30.08,29.96,8,1,8,0.00
2012-5-26,96.3,69.9,55.9,55.1,50.0,44.6,84,54,23,29.99,29.88,6,1,6,0.00
2012-5-27,102.7,71.6,52.5,61.4,50.6,43.8,79,52,24,29.91,29.84,4,0,4,0.00
2012-5-28,90.9,70.0,52.5,59.5,52.6,44.3,78,56,33,29.88,29.84,6,0,6,0.00
2012-5-29,92.5,68.0,53.2,62.7,54.2,47.9,84,64,36,29.87,29.81,6,0,6,0.00
2012-5-30,90.9,67.9,54.1,60.9,53.7,48.5,85,64,34,29.89,29.83,5,0,5,0.00
2012-5-31,72.1,61.9,54.5,55.9,52.1,48.8,82,71,54,29.91,29.86,6,0,6,0.00
2012-6-1,77.5,64.4,53.2,59.2,53.9,48.2,85,70,50,29.93,29.86,0,0,0,0.00
2012-6-2,80.1,59.4,51.1,57.9,50.9,44.8,87,75,44,29.87,29.60,0,0,0,0.04
2012-6-3,55.0,52.8,50.5,51.2,49.0,46.4,88,87,85,29.60,29.50,0,0,0,0.00
2012-6-4,70.9,52.1,42.6,53.2,44.0,37.5,89,75,45,29.92,29.55,0,0,0,0.00
2012-6-5,61.9,52.0,41.2,51.6,45.5,36.6,87,79,60,29.92,29.48,5,0,5,0.04
2012-6-6,71.4,58.4,52.5,58.7,51.9,47.8,88,80,61,29.48,29.37,4,0,4,0.02
2012-6-7,63.1,57.3,53.4,57.0,51.8,48.1,87,82,75,29.44,29.13,9,0,9,0.10
2012-6-8,63.5,55.8,51.4,52.8,48.2,44.0,88,76,61,29.52,29.11,15,2,15,0.15
2012-6-9,74.1,59.4,50.0,47.2,44.1,38.2,80,60,35,29.67,29.51,7,1,7,0.00
2012-6-10,72.1,56.1,42.1,53.3,46.6,37.9,85,72,46,29.69,29.46,1,0,1,0.02
2012-6-11,58.1,53.3,49.8,53.6,49.2,46.3,88,86,83,29.48,29.37,7,0,7,0.10
2012-6-12,61.0,53.2,49.6,53.7,47.1,44.3,89,80,66,29.77,29.47,6,0,6,0.10
2012-6-13,81.3,61.4,46.9,53.9,46.1,40.1,87,60,33,29.88,29.76,4,0,4,0.00
2012-6-14,73.0,56.8,44.4,53.4,46.5,39.0,86,70,47,29.88,29.61,3,0,3,0.02
2012-6-15,76.3,60.2,52.0,56.5,50.8,46.3,88,73,45,29.61,29.54,9,1,9,0.02
2012-6-16,71.8,60.7,55.2,52.6,49.6,47.7,80,67,51,29.68,29.55,9,3,9,0.00
2012-6-17,80.4,60.4,50.9,54.7,48.9,45.2,84,67,41,29.86,29.68,7,1,7,0.00
2012-6-18,86.5,60.3,49.8,55.7,48.7,41.1,86,68,34,29.91,29.77,6,0,6,0.02
2012-6-19,82.9,65.4,50.2,55.0,48.9,44.9,84,58,35,29.93,29.86,4,0,4,0.00
2012-6-20,91.9,63.7,47.3,58.5,48.5,42.5,86,61,31,29.88,29.69,4,0,4,0.00
2012-6-21,75.9,60.0,50.7,66.6,52.2,43.3,86,76,56,29.68,29.41,8,0,8,0.02
2012-6-22,75.4,58.7,50.5,55.0,49.8,45.8,87,74,49,29.85,29.52,8,2,8,0.00
2012-6-23,54.0,50.5,49.1,46.5,45.0,43.9,84,82,75,29.89,29.84,5,0,5,0.00
2012-6-24,83.3,65.0,50.2,58.5,50.4,45.2,83,61,38,29.89,29.67,10,1,10,0.00
2012-6-25,65.1,56.8,51.6,54.8,50.3,46.3,86,79,68,29.86,29.80,6,0,6,0.00
2012-6-26,64.9,64.9,64.9,54.1,54.1,54.1,68,68,68,29.85,29.85,0,0,1,0.00
2012-6-27,78.8,68.5,61.0,65.0,59.4,54.1,83,73,60,29.88,29.70,4,0,4,0.00
2012-6-28,94.5,72.0,56.1,72.1,61.0,48.6,87,71,38,29.70,29.38,6,1,6,0.00
2012-6-29,78.6,63.0,54.0,58.9,53.4,48.1,83,72,45,29.53,29.44,10,1,10,0.00
2012-6-30,82.2,64.7,55.0,57.9,52.3,45.7,85,66,38,29.66,29.52,9,1,9,0.02
2012-7-1,77.9,59.1,47.8,54.2,48.0,43.1,85,68,42,29.86,29.65,7,1,7,0.00
2012-7-2,64.6,58.7,52.9,57.0,52.7,46.9,87,81,70,29.85,29.75,6,0,6,0.04
2012-7-3,67.3,61.8,58.3,62.0,57.6,54.8,88,86,82,29.76,29.74,3,0,3,0.00
2012-7-4,67.3,67.3,67.3,61.6,61.6,61.6,82,82,82,29.74,29.74,0,0,2,0.00
2012-7-5,67.3,67.3,67.3,61.6,61.6,61.6,82,82,82,29.74,29.74,0,0,2,0.00
2012-7-6,67.3,67.3,67.3,61.6,61.6,61.6,82,82,82,29.74,29.74,0,0,2,0.00
2012-7-7,67.3,67.3,67.3,61.6,61.6,61.6,82,82,82,29.74,29.74,0,0,2,0.00
2012-7-8,70.3,64.0,57.6,61.6,56.3,50.9,82,76,58,29.74,29.55,2,0,2,0.00
2012-7-9,69.6,61.9,56.3,59.3,55.0,51.8,86,78,66,29.70,29.62,4,0,4,0.00
2012-7-10,84.6,60.1,53.2,65.7,53.4,48.5,87,79,51,29.70,29.61,5,0,5,0.00
2012-7-11,81.7,59.6,51.3,57.9,50.1,46.0,88,73,40,29.69,29.64,6,0,6,0.00
2012-7-12,75.7,56.7,45.9,56.0,48.9,42.2,88,77,43,29.76,29.51,6,0,6,0.00
2012-7-13,68.2,58.5,56.1,57.0,53.9,52.4,89,85,68,29.52,29.40,5,0,5,0.00
2012-8-17,83.0,81.2,78.7,55.9,53.9,51.9,44,39,36,29.92,29.91,3,2,0,0.00
2012-8-19,72.7,68.4,65.2,61.5,59.1,58.2,78,72,67,30.03,29.98,1,0,0,0.00
2012-8-20,65.1,62.6,60.2,58.4,57.8,56.8,90,84,79,30.06,30.03,0,0,0,0.00
2012-8-21,69.8,64.1,60.7,58.4,56.9,54.9,91,78,60,29.98,29.95,6,0,0,0.32
2012-8-22,73.0,65.0,54.1,56.9,52.6,50.1,93,66,47,30.07,30.00,9,1,0,0.00
2012-9-4,82.1,80.7,78.3,64.1,63.0,61.3,61,55,51,30.21,30.20,9,2,0,0.00
2012-9-5,77.2,59.8,48.6,50.8,47.8,45.7,90,67,36,30.40,30.26,2,0,11,0.00
2012-9-6,72.1,56.9,42.9,51.6,45.8,41.0,96,70,39,30.41,30.27,1,0,7,0.00
2012-9-7,84.1,69.5,48.8,52.8,48.6,44.3,95,54,26,30.28,30.19,7,0,8,0.00
2012-9-8,83.7,65.7,45.1,54.8,47.5,39.3,96,59,23,30.21,30.01,4,0,4,0.00
2012-9-9,83.0,64.2,45.1,57.8,51.5,43.2,96,68,29,30.01,29.76,10,1,10,0.00
2012-9-10,67.7,63.3,60.2,60.2,57.3,54.6,93,81,69,29.83,29.78,10,2,12,0.00
2012-9-11,65.8,58.6,49.4,55.7,46.3,38.6,83,65,40,30.01,29.77,12,1,13,0.00
2012-9-12,64.5,52.7,40.4,53.9,45.9,38.1,96,78,56,30.01,29.86,16,1,16,0.04
2012-9-13,69.3,54.5,41.9,50.5,44.9,40.0,94,73,41,30.15,29.99,9,1,9,0.00
2012-9-14,72.9,60.3,50.0,57.1,50.2,44.7,86,71,42,30.03,29.86,16,1,16,0.00
2012-9-15,74.5,56.5,42.7,54.0,48.0,40.8,96,75,46,30.07,29.97,8,0,9,0.00
2012-9-16,65.0,58.8,52.5,53.6,51.5,49.1,92,77,59,29.98,29.84,8,1,9,0.00
2012-9-17,65.7,58.6,51.9,53.7,49.2,43.6,96,72,47,29.93,29.84,10,0,12,0.00
2012-9-18,67.5,54.9,46.3,49.7,44.1,36.1,92,69,40,30.10,29.82,11,1,13,0.00
2012-9-19,66.7,50.9,39.1,43.8,40.1,36.3,95,69,35,30.21,30.10,11,1,11,0.00
2012-9-20,65.5,53.2,44.1,48.4,44.8,39.8,93,75,49,30.21,30.07,7,0,8,0.00
2012-9-21,63.5,53.5,47.8,52.2,47.7,45.0,92,81,59,30.08,29.90,6,0,7,0.00
2012-9-22,69.2,51.2,38.7,47.1,41.3,36.8,96,72,36,30.16,30.01,5,0,5,0.01
2012-9-23,51.9,48.6,43.6,51.1,45.7,39.3,97,90,79,30.09,29.39,6,0,6,0.85
2012-9-24,58.1,53.8,49.8,57.1,50.8,45.8,98,90,70,29.39,29.06,14,1,14,0.43
2012-9-25,61.2,53.2,47.7,49.7,46.6,44.3,90,79,61,29.20,29.15,12,2,14,0.01
2012-9-26,63.2,52.5,48.4,57.5,49.9,46.1,97,91,75,29.49,29.16,5,0,6,0.23
2012-9-27,66.8,53.9,49.0,51.6,48.9,46.4,97,84,52,29.91,29.49,9,0,10,0.03
2012-9-28,61.3,51.9,44.9,54.3,48.1,43.0,96,87,73,29.94,29.87,8,0,9,0.02
2012-9-29,64.2,50.6,42.2,46.8,43.4,39.6,97,79,43,30.17,29.93,11,0,11,0.00
2012-9-30,62.1,51.1,37.6,52.4,46.3,36.4,98,84,68,30.17,29.95,12,1,12,0.00
2012-10-1,63.9,56.6,50.4,57.1,53.3,48.6,97,89,72,29.95,29.82,9,1,10,0.33
2012-10-2,63.5,54.2,46.5,54.5,50.5,45.4,98,88,68,29.88,29.66,11,2,12,0.07
2012-10-3,58.9,52.7,45.6,52.3,47.4,43.6,95,83,61,29.72,29.65,12,1,13,0.15
2012-10-4,63.6,49.5,38.5,50.1,44.5,37.4,98,84,56,29.83,29.65,12,0,12,0.07
2012-10-5,59.6,52.6,46.9,58.0,49.6,45.8,98,90,66,29.84,29.48,12,1,15,0.92
2012-10-6,67.4,50.5,42.0,54.6,45.9,39.8,97,86,51,30.03,29.77,6,0,6,0.35
2012-10-7,59.4,45.4,35.9,51.3,42.9,34.8,98,91,70,30.22,30.03,2,0,2,0.00
2012-10-8,53.7,51.0,45.6,52.6,49.6,44.2,97,95,91,30.16,29.86,1,0,1,0.12
2012-10-9,62.3,52.0,46.6,52.7,48.0,45.2,97,87,66,30.04,29.92,3,0,4,0.00
2012-10-10,64.8,52.9,47.5,51.0,45.7,43.0,88,77,50,30.01,29.86,4,0,5,0.00
2012-10-11,57.8,53.5,48.4,57.2,50.9,44.4,98,91,78,29.86,29.46,8,0,8,0.30
2012-10-12,59.7,51.1,42.2,54.0,46.4,40.0,95,84,51,29.79,29.49,12,1,12,0.01
2012-10-13,56.4,44.0,36.5,47.3,40.6,35.3,98,88,64,29.75,29.62,11,0,11,0.00
2012-10-14,63.7,43.5,32.9,47.6,37.8,32.1,98,83,44,29.64,29.57,11,0,11,0.00
2012-10-15,56.6,45.2,33.8,49.0,42.4,32.4,97,90,69,29.65,29.46,9,0,9,0.06
2012-10-16,61.0,51.5,44.2,51.1,44.4,40.5,96,78,48,29.65,29.35,12,2,12,0.03
2012-10-17,62.4,53.8,44.2,53.5,49.3,42.3,98,86,59,29.59,29.32,15,1,15,0.71
2012-10-18,62.1,55.0,50.6,54.3,51.6,49.5,97,89,67,29.71,29.46,8,0,9,0.08
2012-10-19,55.3,51.8,49.0,53.9,50.6,47.6,98,96,92,29.82,29.69,5,0,5,0.21
2012-10-20,56.9,50.4,44.8,53.5,49.0,44.0,98,95,84,30.09,29.82,3,0,6,0.14
2012-10-21,53.5,50.5,47.4,51.5,49.4,46.6,98,96,91,30.09,30.03,4,0,4,0.06
2012-10-22,59.2,55.5,51.1,57.9,54.6,50.2,99,97,94,30.21,30.03,2,0,2,0.00
2012-10-23,56.3,54.5,52.5,55.4,53.6,51.6,98,97,95,30.25,30.20,4,0,5,0.00
2012-10-24,62.9,56.0,53.6,58.9,54.3,52.7,98,95,83,30.20,30.03,4,0,4,0.01
2012-10-25,56.2,53.1,48.0,54.7,51.1,44.3,97,93,85,30.04,29.96,6,0,6,0.00
2012-10-26,48.0,44.9,37.1,44.6,40.4,32.6,90,84,76,29.99,29.84,10,0,10,0.00
2012-10-27,53.1,39.8,34.3,39.7,34.2,30.3,91,81,57,30.16,29.88,14,2,14,0.01
2012-10-28,47.3,40.9,32.1,44.7,38.6,30.0,96,92,87,30.15,29.84,7,0,7,0.15
2012-10-29,55.2,47.6,43.4,49.9,45.1,41.9,97,91,78,29.84,29.73,7,0,8,0.10
2012-10-30,53.9,43.4,36.7,46.0,40.1,35.3,98,89,60,29.74,29.48,7,0,7,0.00
2012-10-31,53.2,43.3,35.3,47.7,40.7,34.1,98,91,76,29.48,29.16,11,1,12,0.01
2012-11-1,49.7,43.2,35.5,47.2,40.5,33.9,97,90,78,29.12,28.81,3,1,10,0.36
2012-11-2,51.2,41.1,32.9,42.7,36.7,31.4,97,85,61,29.40,29.13,3,1,14,0.01
2012-11-3,50.6,37.8,30.2,39.7,34.2,29.2,98,87,62,29.51,29.33,3,0,12,0.00
2012-11-4,46.9,35.9,30.6,46.4,34.4,29.5,98,94,91,29.50,29.13,5,0,6,0.65
2012-11-5,58.2,39.1,30.3,47.0,35.6,29.5,99,88,55,30.02,29.47,8,0,9,0.00
2012-11-6,49.5,39.9,28.3,44.9,37.3,27.3,98,91,75,30.20,30.02,9,0,9,0.01
2012-11-7,50.2,44.8,37.9,44.7,41.6,36.3,98,89,78,30.29,30.17,9,0,9,0.00
2012-11-8,58.6,48.3,44.9,48.4,43.6,41.3,94,84,62,30.17,30.02,10,0,10,0.00
2012-11-9,50.4,46.5,43.1,46.9,42.7,40.3,92,87,79,30.02,29.53,6,0,6,0.00
2012-11-10,49.2,44.7,34.2,47.4,43.1,33.1,97,94,88,29.58,29.40,4,0,5,0.18
2012-11-11,56.2,38.2,30.3,47.3,35.0,29.4,99,89,56,30.11,29.58,5,0,5,0.00
2012-11-12,52.6,44.8,33.6,51.8,44.0,32.3,98,97,95,30.22,30.09,7,0,7,0.11
2012-11-13,59.1,51.4,42.6,54.1,49.4,41.5,99,93,78,30.34,30.21,8,0,8,0.01
2012-11-14,62.4,48.9,39.4,51.4,45.4,38.0,98,89,53,30.33,30.25,2,0,2,0.00
2012-11-15,48.3,41.8,37.7,44.0,40.1,36.9,98,94,81,30.26,30.09,2,0,4,0.00
2012-11-16,48.2,44.6,41.3,47.5,43.4,39.8,98,96,92,30.09,29.74,2,0,2,0.01
2012-11-17,52.9,48.6,40.0,51.6,46.3,37.3,98,92,80,29.88,29.67,9,0,9,0.00
2012-11-18,51.9,37.4,28.8,43.3,33.9,27.9,98,88,61,30.00,29.87,3,0,4,0.00
2012-11-19,50.7,42.9,29.9,48.3,40.1,28.9,98,90,75,29.96,29.78,9,1,10,0.00
2012-11-20,55.2,52.8,50.4,52.7,50.9,48.3,97,93,88,29.79,29.73,12,2,15,0.40
2012-11-21,51.3,45.6,35.3,50.5,44.6,34.5,98,96,92,29.98,29.52,21,1,21,0.26
2012-11-22,54.9,50.0,35.4,50.1,46.4,34.8,99,88,75,29.98,29.64,19,4,19,0.61
2012-11-23,48.0,40.4,33.5,46.7,39.3,32.7,99,96,93,30.01,29.71,6,0,8,0.14
2012-11-24,48.9,41.3,32.6,48.1,40.8,32.1,99,98,97,30.01,29.26,7,0,7,0.34
2012-11-25,52.8,48.3,42.9,52.5,44.6,35.1,99,87,72,29.72,29.18,18,2,20,0.16
2012-11-26,49.5,45.3,43.5,46.2,43.9,42.4,98,95,84,29.55,29.42,8,0,10,0.32
2012-11-27,45.7,43.5,40.8,44.3,41.9,38.3,98,94,89,29.86,29.50,14,1,14,0.09
2012-11-28,44.3,41.0,35.1,40.6,37.6,31.6,92,88,83,29.97,29.86,12,2,14,0.00
2012-11-29,48.0,35.3,28.1,39.2,31.9,26.8,97,88,67,29.95,29.85,11,1,11,0.00
2012-11-30,42.5,31.0,25.2,36.5,29.2,24.4,98,93,77,29.96,29.83,2,0,2,0.00
2012-12-1,41.3,31.8,25.7,38.8,30.2,25.0,98,94,83,30.00,29.92,9,0,12,0.00
2012-12-2,44.9,32.4,24.0,36.7,29.8,23.0,98,91,67,30.05,29.92,2,0,4,0.05
2012-12-3,48.8,41.4,32.4,48.1,39.4,31.0,99,93,78,29.92,29.64,13,0,13,0.30
2012-12-4,48.7,35.5,27.4,40.4,32.6,26.4,98,90,70,29.65,29.60,11,1,11,0.00
2012-12-5,42.2,32.8,26.8,37.3,29.9,26.0,98,90,77,30.02,29.59,11,1,13,0.02
2012-12-6,41.1,31.8,23.7,39.2,29.2,22.1,96,90,80,30.07,29.46,11,1,12,0.11
2012-12-7,46.4,39.3,35.0,39.0,35.2,33.0,96,86,69,30.00,29.43,18,2,20,0.09
2012-12-8,46.8,38.0,30.6,40.2,34.9,29.1,97,89,76,30.30,30.00,8,0,10,0.00
2012-12-9,47.3,42.3,35.7,41.6,38.4,33.8,96,86,75,30.24,29.98,15,1,15,0.00
2012-12-10,47.2,36.7,31.2,37.2,32.9,29.5,94,86,66,30.36,30.04,11,1,11,0.00
2012-12-11,43.5,30.6,24.7,35.8,28.5,23.8,98,92,72,30.44,30.33,5,0,6,0.01
2012-12-12,28.9,25.3,22.5,28.2,24.5,21.5,97,97,96,30.33,29.88,2,0,2,0.00
2012-12-13,32.3,28.8,24.0,31.2,27.7,23.0,98,96,92,29.88,29.51,3,0,4,0.01
2012-12-14,49.2,42.4,32.3,48.2,40.8,31.1,99,94,84,29.51,28.77,15,1,15,0.30
2012-12-15,52.7,45.8,42.2,47.1,43.0,40.0,94,90,79,29.45,29.06,10,1,10,0.02
2012-12-16,53.4,40.7,33.4,46.5,38.7,32.6,99,93,74,29.57,29.44,5,0,5,0.03
2012-12-17,48.6,40.5,32.5,43.8,38.2,31.7,99,92,79,29.69,29.47,4,0,7,0.01
2012-12-18,45.3,40.7,35.3,41.7,38.6,33.8,98,92,86,30.11,29.70,8,0,8,0.00
2012-12-19,43.9,39.9,34.2,42.6,38.6,33.4,98,95,87,30.11,29.79,6,0,6,0.30
2012-12-20,48.6,45.7,43.2,48.3,44.9,42.4,99,97,93,29.79,29.44,8,0,10,0.46
2012-12-21,49.0,42.4,36.3,46.6,41.0,35.6,99,95,85,29.95,29.61,6,0,6,0.00
2012-12-22,54.3,48.3,37.1,53.8,47.6,36.6,99,97,95,29.93,29.53,8,1,9,0.77
2012-12-23,54.6,51.1,44.9,53.2,48.2,43.5,97,90,81,29.73,29.50,10,1,13,0.01
2012-12-24,52.7,47.2,43.7,50.8,45.9,42.3,99,95,89,29.72,29.28,11,1,13,0.33
2012-12-25,47.7,44.6,40.2,46.9,42.3,38.1,98,92,84,29.62,29.24,9,1,10,0.24
2012-12-26,49.3,43.9,36.0,47.8,41.6,34.7,98,92,84,29.75,29.50,11,1,15,0.09
2012-12-27,45.2,43.2,39.8,43.5,40.4,37.9,96,90,84,30.14,29.43,14,1,16,0.09
2012-12-28,52.7,47.3,39.3,50.5,45.6,37.6,99,94,89,30.15,29.83,14,1,14,0.21
2012-12-29,52.9,48.7,42.2,49.0,45.2,37.7,95,88,79,29.84,29.45,15,4,19,0.09
2012-12-30,50.9,44.5,39.5,46.5,40.1,35.7,89,85,81,29.89,29.64,14,2,14,0.01
2012-12-31,51.3,49.8,46.6,48.9,47.1,45.3,96,91,83,29.84,29.43,16,3,18,0.19
2013-1-1,48.3,41.1,34.4,45.4,37.6,32.1,96,87,70,30.06,29.50,13,1,13,0.03